White Heath, Illinois
Current Conditions -  °F | °C
As of 6:53 AM on Sunday 23 Nov 2014 (Local Time) from KCMI Reporting Station
Broken Clouds Broken Clouds  
Wind Chill: 43°   Ceiling: 11000
Heat Index: 48°   Visibility: 10mi
Dew Point: 43°   Wind: 13mph
Humidity: 83%   Direction: 160°SSE
Pressure: 29.8"   Gusts: NA
Location:  40.08°N, 88.51°W
Report Text: KCMI 231253Z 16011KT 10SM BKN110 09/06 A2980 RMK AO2 SLP094 T00890061 $
Loading
Personal Weather Stations






























Interactive Weather Map New forecast layout! Learn more

10-Day Weather Forecast

Advertisements
Track Severe Weather on mobile